createdAt,value
2023-08-31T00:00:33.838Z,346
2023-08-31T00:02:32.487Z,333
2023-08-31T00:03:32.076Z,328
2023-08-31T00:04:33.239Z,330
2023-08-31T00:05:32.718Z,327
2023-08-31T00:06:32.589Z,330
2023-08-31T00:07:32.620Z,332
2023-08-31T00:08:32.720Z,344
2023-08-31T00:09:32.834Z,336
2023-08-31T00:10:35.212Z,330
2023-08-31T00:11:32.706Z,329
2023-08-31T00:12:32.987Z,328
2023-08-31T00:13:31.748Z,322
2023-08-31T00:14:32.785Z,327
2023-08-31T00:15:32.133Z,339
2023-08-31T00:16:32.478Z,334
2023-08-31T00:17:32.434Z,333
2023-08-31T00:18:32.834Z,336
2023-08-31T00:19:31.813Z,333
2023-08-31T00:20:33.489Z,337
2023-08-31T00:22:32.326Z,333
2023-08-31T00:23:32.245Z,334
2023-08-31T00:24:31.987Z,327
2023-08-31T00:25:32.139Z,323
2023-08-31T00:26:32.161Z,324
2023-08-31T00:27:32.093Z,318
2023-08-31T00:28:32.475Z,323
2023-08-31T00:29:32.296Z,331
2023-08-31T00:30:32.735Z,334
2023-08-31T00:31:32.816Z,328
2023-08-31T00:32:31.950Z,321
2023-08-31T00:33:32.086Z,329
2023-08-31T00:34:32.189Z,338
2023-08-31T00:35:32.768Z,334
2023-08-31T00:36:32.678Z,337
2023-08-31T00:37:32.755Z,339
2023-08-31T00:38:32.618Z,337
2023-08-31T00:39:32.362Z,343
2023-08-31T00:42:32.908Z,330
2023-08-31T00:43:32.110Z,332
2023-08-31T00:44:32.199Z,327
2023-08-31T00:45:33.206Z,321
2023-08-31T00:46:32.645Z,319
2023-08-31T00:47:32.704Z,326
2023-08-31T00:48:32.822Z,325
2023-08-31T00:49:31.909Z,338
2023-08-31T00:50:34.103Z,333
2023-08-31T00:51:32.829Z,324
2023-08-31T00:52:32.592Z,335
2023-08-31T00:53:32.706Z,332
2023-08-31T00:54:32.996Z,321
2023-08-31T00:55:33.223Z,327
2023-08-31T00:57:32.892Z,325
2023-08-31T00:58:32.653Z,330
2023-08-31T00:59:32.989Z,335
2023-08-31T01:00:37.637Z,326
2023-08-31T01:01:32.809Z,335
2023-08-31T01:02:40.730Z,329
2023-08-31T01:03:39.416Z,327
2023-08-31T01:04:31.621Z,332
2023-08-31T01:05:33.018Z,325
2023-08-31T01:06:32.652Z,329
2023-08-31T01:07:32.775Z,335
2023-08-31T01:08:32.528Z,337
2023-08-31T01:09:32.685Z,335
2023-08-31T01:10:34.158Z,338
2023-08-31T01:11:32.974Z,333
2023-08-31T01:12:32.442Z,335
2023-08-31T01:13:32.380Z,330
2023-08-31T01:14:32.800Z,342
2023-08-31T01:15:33.156Z,336
2023-08-31T01:16:32.195Z,337
2023-08-31T01:17:32.512Z,336
2023-08-31T01:18:32.798Z,333
2023-08-31T01:19:31.891Z,328
2023-08-31T01:20:33.425Z,324
2023-08-31T01:21:32.590Z,330
2023-08-31T01:22:32.783Z,325
2023-08-31T01:23:32.102Z,331
2023-08-31T01:24:31.968Z,336
2023-08-31T01:25:31.881Z,331
2023-08-31T01:26:32.178Z,325
2023-08-31T01:27:32.325Z,320
2023-08-31T01:28:32.384Z,319
2023-08-31T01:29:32.602Z,320
2023-08-31T01:30:33.784Z,333
2023-08-31T01:31:32.458Z,337
2023-08-31T01:32:32.300Z,342
2023-08-31T01:33:32.612Z,330
2023-08-31T01:35:32.771Z,335
2023-08-31T01:36:32.537Z,339
2023-08-31T01:37:32.399Z,328
2023-08-31T01:39:31.594Z,331
2023-08-31T01:40:33.822Z,320
2023-08-31T01:41:32.664Z,319
2023-08-31T01:42:32.704Z,316
2023-08-31T01:43:32.401Z,329
2023-08-31T01:44:32.487Z,332
2023-08-31T01:45:32.631Z,331
2023-08-31T01:47:32.762Z,327
2023-08-31T01:48:32.566Z,334
2023-08-31T01:49:32.240Z,322
2023-08-31T01:50:33.215Z,317
2023-08-31T01:51:31.838Z,323
2023-08-31T01:52:31.846Z,339
2023-08-31T01:53:31.764Z,334
2023-08-31T01:54:31.850Z,335
2023-08-31T01:55:32.866Z,327
2023-08-31T01:56:32.942Z,326
2023-08-31T01:57:32.597Z,311
2023-08-31T01:58:32.751Z,322
2023-08-31T01:59:31.233Z,331
2023-08-31T02:00:33.492Z,330
2023-08-31T02:01:32.331Z,336
2023-08-31T02:02:32.490Z,335
2023-08-31T02:03:32.560Z,342
2023-08-31T02:04:32.352Z,335
2023-08-31T02:05:32.868Z,337
2023-08-31T02:06:33.735Z,343
2023-08-31T02:07:32.822Z,325
2023-08-31T02:09:32.743Z,327
2023-08-31T02:10:34.172Z,326
2023-08-31T02:11:32.082Z,323
2023-08-31T02:12:32.383Z,332
2023-08-31T02:13:32.245Z,340
2023-08-31T02:14:32.307Z,336
2023-08-31T02:15:32.569Z,339
2023-08-31T02:16:32.596Z,337
2023-08-31T02:17:32.651Z,335
2023-08-31T02:18:32.753Z,333
2023-08-31T02:19:32.449Z,337
2023-08-31T02:21:32.220Z,332
2023-08-31T02:22:32.327Z,330
2023-08-31T02:23:32.405Z,323
2023-08-31T02:24:32.193Z,328
2023-08-31T02:25:32.288Z,334
2023-08-31T02:26:32.700Z,330
2023-08-31T02:27:32.475Z,335
2023-08-31T02:28:32.875Z,338
2023-08-31T02:29:32.003Z,333
2023-08-31T02:30:32.972Z,331
2023-08-31T02:31:32.442Z,337
2023-08-31T02:32:33.184Z,334
2023-08-31T02:33:32.232Z,339
2023-08-31T02:34:32.623Z,342
2023-08-31T02:35:32.892Z,344
2023-08-31T02:36:32.231Z,345
2023-08-31T02:37:32.094Z,342
2023-08-31T02:38:32.279Z,330
2023-08-31T02:39:32.494Z,324
2023-08-31T02:40:33.516Z,335
2023-08-31T02:42:32.568Z,332
2023-08-31T02:43:32.563Z,339
2023-08-31T02:44:32.671Z,345
2023-08-31T02:45:32.422Z,342
2023-08-31T02:46:32.871Z,339
2023-08-31T02:47:32.459Z,341
2023-08-31T02:48:32.537Z,334
2023-08-31T02:49:32.833Z,344
2023-08-31T02:50:33.102Z,343
2023-08-31T02:51:31.941Z,339
2023-08-31T02:52:32.926Z,338
2023-08-31T02:54:32.724Z,337
2023-08-31T02:55:32.729Z,338
2023-08-31T02:56:32.731Z,337
2023-08-31T02:57:32.683Z,340
2023-08-31T02:58:32.837Z,339
2023-08-31T03:00:33.750Z,340
2023-08-31T03:01:32.504Z,346
2023-08-31T03:02:32.565Z,347
2023-08-31T03:03:32.691Z,335
2023-08-31T03:04:32.491Z,340
2023-08-31T03:06:32.171Z,333
2023-08-31T03:07:32.771Z,334
2023-08-31T03:08:32.641Z,342
2023-08-31T03:09:32.610Z,343
2023-08-31T03:10:34.548Z,355
2023-08-31T03:11:33.079Z,364
2023-08-31T03:13:32.801Z,371
2023-08-31T03:14:32.941Z,370
2023-08-31T03:15:32.908Z,365
2023-08-31T03:16:32.315Z,357
2023-08-31T03:17:32.751Z,336
2023-08-31T03:18:32.233Z,333
2023-08-31T03:19:32.623Z,343
2023-08-31T03:20:33.596Z,362
2023-08-31T03:22:32.429Z,360
2023-08-31T03:23:32.386Z,355
2023-08-31T03:24:32.292Z,349
2023-08-31T03:25:32.419Z,351
2023-08-31T03:26:33.009Z,345
2023-08-31T03:27:31.768Z,350
2023-08-31T03:28:33.258Z,351
2023-08-31T03:29:32.357Z,352
2023-08-31T03:30:33.726Z,358
2023-08-31T03:31:32.882Z,351
2023-08-31T03:32:32.325Z,360
2023-08-31T03:33:32.078Z,356
2023-08-31T03:34:31.995Z,347
2023-08-31T03:35:32.525Z,345
2023-08-31T03:36:33.028Z,337
2023-08-31T03:37:31.784Z,343
2023-08-31T03:38:32.636Z,342
2023-08-31T03:39:32.614Z,346
2023-08-31T03:40:33.952Z,349
2023-08-31T03:41:32.550Z,338
2023-08-31T03:42:32.690Z,331
2023-08-31T03:43:32.390Z,333
2023-08-31T03:45:32.913Z,340
2023-08-31T03:46:32.173Z,329
2023-08-31T03:47:32.343Z,336
2023-08-31T03:48:32.287Z,347
2023-08-31T03:49:32.313Z,359
2023-08-31T03:50:33.270Z,347
2023-08-31T03:51:32.504Z,355
2023-08-31T03:52:32.346Z,353
2023-08-31T03:53:31.898Z,354
2023-08-31T03:54:31.838Z,346
2023-08-31T03:55:31.952Z,347
2023-08-31T03:56:32.209Z,343
2023-08-31T03:58:32.793Z,340
2023-08-31T03:59:32.293Z,333
2023-08-31T04:00:34.370Z,330
2023-08-31T04:01:32.626Z,327
2023-08-31T04:02:32.786Z,326
2023-08-31T04:03:32.367Z,330
2023-08-31T04:04:33.346Z,335
2023-08-31T04:05:33.030Z,341
2023-08-31T04:06:32.347Z,332
2023-08-31T04:07:32.332Z,334
2023-08-31T04:09:32.136Z,336
2023-08-31T04:10:33.961Z,347
2023-08-31T04:11:33.338Z,346
2023-08-31T04:12:32.405Z,341
2023-08-31T04:13:32.418Z,340
2023-08-31T04:14:32.916Z,347
2023-08-31T04:15:32.487Z,355
2023-08-31T04:16:32.425Z,338
2023-08-31T04:17:32.687Z,328
2023-08-31T04:18:33.159Z,332
2023-08-31T04:19:32.244Z,341
2023-08-31T04:20:33.747Z,348
2023-08-31T04:21:32.541Z,351
2023-08-31T04:22:31.971Z,349
2023-08-31T04:23:32.456Z,343
2023-08-31T04:24:32.368Z,339
2023-08-31T04:25:32.707Z,342
2023-08-31T04:26:32.062Z,337
2023-08-31T04:27:32.144Z,338
2023-08-31T04:28:32.035Z,333
2023-08-31T04:29:31.875Z,327
2023-08-31T04:30:33.042Z,337
2023-08-31T04:31:32.041Z,346
2023-08-31T04:32:32.139Z,352
2023-08-31T04:33:32.133Z,343
2023-08-31T04:34:31.773Z,336
2023-08-31T04:35:32.822Z,339
2023-08-31T04:36:32.666Z,344
2023-08-31T04:37:32.569Z,348
2023-08-31T04:38:32.716Z,344
2023-08-31T04:39:33.048Z,350
2023-08-31T04:41:32.930Z,342
2023-08-31T04:42:32.381Z,336
2023-08-31T04:43:32.010Z,337
2023-08-31T04:44:32.564Z,330
2023-08-31T04:45:33.303Z,337
2023-08-31T04:46:32.534Z,343
2023-08-31T04:47:33.095Z,348
2023-08-31T04:48:32.454Z,340
2023-08-31T04:49:32.360Z,336
2023-08-31T04:50:33.436Z,338
2023-08-31T04:51:32.599Z,345
2023-08-31T04:52:32.792Z,334
2023-08-31T04:53:32.648Z,332
2023-08-31T04:54:32.918Z,326
2023-08-31T04:55:32.365Z,330
2023-08-31T04:56:32.090Z,328
2023-08-31T04:57:32.864Z,341
2023-08-31T04:58:32.736Z,342
2023-08-31T04:59:32.756Z,337
2023-08-31T05:00:33.925Z,336
2023-08-31T05:01:33.207Z,345
2023-08-31T05:02:32.856Z,343
2023-08-31T05:03:32.482Z,340
2023-08-31T05:04:32.762Z,333
2023-08-31T05:05:33.313Z,340
2023-08-31T05:06:32.160Z,346
2023-08-31T05:07:32.305Z,335
2023-08-31T05:10:35.722Z,339
2023-08-31T05:11:32.482Z,337
2023-08-31T05:12:32.799Z,338
2023-08-31T05:13:32.675Z,333
2023-08-31T05:14:33.595Z,327
2023-08-31T05:16:32.980Z,326
2023-08-31T05:17:32.457Z,337
2023-08-31T05:18:32.688Z,336
2023-08-31T05:19:32.528Z,335
2023-08-31T05:20:33.512Z,345
2023-08-31T05:21:32.467Z,343
2023-08-31T05:22:32.845Z,345
2023-08-31T05:23:31.937Z,352
2023-08-31T05:24:32.406Z,336
2023-08-31T05:25:33.389Z,341
2023-08-31T05:26:32.900Z,343
2023-08-31T05:27:32.512Z,332
2023-08-31T05:28:33.026Z,322
2023-08-31T05:29:32.388Z,329
2023-08-31T05:30:33.034Z,337
2023-08-31T05:31:32.673Z,345
2023-08-31T05:32:32.914Z,332
2023-08-31T05:33:32.078Z,335
2023-08-31T05:34:33.574Z,347
2023-08-31T05:35:32.329Z,340
2023-08-31T05:36:32.614Z,335
2023-08-31T05:37:31.704Z,330
2023-08-31T05:38:32.711Z,338
2023-08-31T05:39:32.297Z,343
2023-08-31T05:40:34.309Z,340
2023-08-31T05:41:32.848Z,329
2023-08-31T05:42:32.654Z,324
2023-08-31T05:43:32.520Z,322
2023-08-31T05:44:32.869Z,337
2023-08-31T05:45:33.228Z,340
2023-08-31T05:46:32.794Z,329
2023-08-31T05:47:32.445Z,331
2023-08-31T05:48:32.987Z,330
2023-08-31T05:49:32.676Z,335
2023-08-31T05:50:32.579Z,334
2023-08-31T05:52:33.109Z,328
2023-08-31T05:54:33.367Z,336
2023-08-31T05:55:33.287Z,337
2023-08-31T05:56:33.022Z,338
2023-08-31T05:57:32.489Z,336
2023-08-31T05:58:33.413Z,329
2023-08-31T05:59:32.995Z,337
2023-08-31T06:00:33.777Z,333
2023-08-31T06:01:32.561Z,325
2023-08-31T06:02:32.578Z,324
2023-08-31T06:03:32.313Z,336
2023-08-31T06:04:32.832Z,340
2023-08-31T06:05:32.727Z,333
2023-08-31T06:06:32.639Z,330
2023-08-31T06:07:32.623Z,338
2023-08-31T06:08:33.043Z,335
2023-08-31T06:09:32.427Z,334
2023-08-31T06:10:36.131Z,340
2023-08-31T06:11:32.793Z,346
2023-08-31T06:12:32.418Z,343
2023-08-31T06:13:33.438Z,340
2023-08-31T06:14:33.388Z,339
2023-08-31T06:15:33.565Z,338
2023-08-31T06:16:33.043Z,331
2023-08-31T06:17:33.046Z,327
2023-08-31T06:18:32.949Z,315
2023-08-31T06:19:32.779Z,314
2023-08-31T06:20:33.350Z,316
2023-08-31T06:21:33.196Z,323
2023-08-31T06:22:33.050Z,330
2023-08-31T06:23:32.822Z,334
2023-08-31T06:24:33.498Z,339
2023-08-31T06:25:33.935Z,333
2023-08-31T06:26:33.461Z,331
2023-08-31T06:27:32.443Z,336
2023-08-31T06:28:33.627Z,326
2023-08-31T06:29:32.669Z,324
2023-08-31T06:30:32.834Z,332
2023-08-31T06:31:32.827Z,323
2023-08-31T06:32:33.053Z,317
2023-08-31T06:33:32.951Z,309
2023-08-31T06:34:33.242Z,334
2023-08-31T06:35:33.395Z,342
2023-08-31T06:36:33.160Z,336
2023-08-31T06:37:32.796Z,328
2023-08-31T06:38:32.849Z,327
2023-08-31T06:39:32.970Z,320
2023-08-31T06:40:33.058Z,318
2023-08-31T06:41:32.455Z,327
2023-08-31T06:42:33.210Z,330
2023-08-31T06:43:32.600Z,336
2023-08-31T06:44:32.563Z,333
2023-08-31T06:45:33.538Z,325
2023-08-31T06:46:32.659Z,317
2023-08-31T06:47:32.283Z,310
2023-08-31T06:48:32.646Z,304
2023-08-31T06:49:32.355Z,321
2023-08-31T06:50:33.506Z,319
2023-08-31T06:51:32.297Z,330
2023-08-31T06:52:33.299Z,327
2023-08-31T06:53:32.607Z,323
2023-08-31T06:54:32.611Z,332
2023-08-31T06:55:33.558Z,329
2023-08-31T06:56:33.532Z,320
2023-08-31T06:58:33.431Z,324
2023-08-31T06:59:33.643Z,323
2023-08-31T07:01:33.067Z,325
2023-08-31T07:02:32.970Z,336
2023-08-31T07:03:32.635Z,341
2023-08-31T07:04:32.897Z,335
2023-08-31T07:05:32.609Z,321
2023-08-31T07:06:33.033Z,324
2023-08-31T07:08:32.721Z,325
2023-08-31T07:10:35.609Z,317
2023-08-31T07:11:32.730Z,324
2023-08-31T07:12:33.509Z,338
2023-08-31T07:13:33.253Z,336
2023-08-31T07:14:33.196Z,331
2023-08-31T07:15:33.025Z,323
2023-08-31T07:16:32.642Z,310
2023-08-31T07:18:32.980Z,318
2023-08-31T07:19:33.232Z,317
2023-08-31T07:20:33.275Z,318
2023-08-31T07:21:33.247Z,315
2023-08-31T07:22:33.026Z,326
2023-08-31T07:24:32.403Z,331
2023-08-31T07:25:34.320Z,330
2023-08-31T07:26:33.343Z,329
2023-08-31T07:27:33.175Z,321
2023-08-31T07:28:33.682Z,319
2023-08-31T07:29:32.430Z,325
2023-08-31T07:30:32.774Z,328
2023-08-31T07:31:32.809Z,321
2023-08-31T07:32:32.182Z,314
2023-08-31T07:33:32.748Z,316
2023-08-31T07:34:32.787Z,308
2023-08-31T07:35:32.625Z,316
2023-08-31T07:36:32.788Z,323
2023-08-31T07:37:32.572Z,318
2023-08-31T07:38:33.349Z,313
2023-08-31T07:39:32.343Z,320
2023-08-31T07:40:35.287Z,310
2023-08-31T07:41:33.429Z,313
2023-08-31T07:42:33.044Z,316
2023-08-31T07:43:32.805Z,311
2023-08-31T07:44:33.049Z,323
2023-08-31T07:45:33.144Z,322
2023-08-31T07:46:33.390Z,313
2023-08-31T07:47:35.445Z,318
2023-08-31T07:48:32.329Z,319
2023-08-31T07:49:32.932Z,316
2023-08-31T07:50:33.872Z,317
2023-08-31T07:51:33.371Z,323
2023-08-31T07:52:33.098Z,311
2023-08-31T07:53:33.289Z,319
2023-08-31T07:54:33.244Z,310
2023-08-31T07:55:33.469Z,320
2023-08-31T07:56:32.672Z,317
2023-08-31T07:57:32.478Z,319
2023-08-31T07:58:33.419Z,322
2023-08-31T07:59:32.356Z,319
2023-08-31T08:00:34.490Z,328
2023-08-31T08:01:33.099Z,320
2023-08-31T08:02:32.722Z,312
2023-08-31T08:03:32.815Z,311
2023-08-31T08:04:33.153Z,306
2023-08-31T08:05:33.461Z,316
2023-08-31T08:06:32.424Z,318
2023-08-31T08:07:33.304Z,313
2023-08-31T08:08:33.161Z,312
2023-08-31T08:09:33.310Z,311
2023-08-31T08:10:35.851Z,313
2023-08-31T08:12:33.263Z,306
2023-08-31T08:13:33.160Z,308
2023-08-31T08:14:34.051Z,313
2023-08-31T08:15:33.660Z,323
2023-08-31T08:16:33.068Z,320
2023-08-31T08:17:33.104Z,318
2023-08-31T08:18:33.169Z,310
2023-08-31T08:19:33.563Z,326
2023-08-31T08:20:33.844Z,327
2023-08-31T08:21:33.764Z,321
2023-08-31T08:22:32.549Z,316
2023-08-31T08:23:33.253Z,315
2023-08-31T08:24:32.937Z,309
2023-08-31T08:25:32.990Z,313
2023-08-31T08:26:32.884Z,306
2023-08-31T08:27:32.983Z,304
2023-08-31T08:28:33.418Z,322
2023-08-31T08:29:32.947Z,315
2023-08-31T08:30:33.648Z,316
2023-08-31T08:31:32.974Z,315
2023-08-31T08:32:33.091Z,306
2023-08-31T08:33:33.342Z,310
2023-08-31T08:34:32.951Z,314
2023-08-31T08:35:32.885Z,328
2023-08-31T08:36:33.404Z,320
2023-08-31T08:37:33.083Z,319
2023-08-31T08:38:32.484Z,314
2023-08-31T08:39:32.725Z,307
2023-08-31T08:40:34.692Z,320
2023-08-31T08:41:33.455Z,322
2023-08-31T08:42:32.781Z,317
2023-08-31T08:44:32.781Z,322
2023-08-31T08:45:33.231Z,332
2023-08-31T08:46:33.363Z,331
2023-08-31T08:47:33.147Z,312
2023-08-31T08:50:35.004Z,307
2023-08-31T08:51:33.137Z,312
2023-08-31T08:52:32.799Z,309
2023-08-31T08:53:32.630Z,306
2023-08-31T08:54:32.828Z,307
2023-08-31T08:55:32.841Z,310
2023-08-31T08:56:32.964Z,307
2023-08-31T08:57:33.001Z,304
2023-08-31T08:58:33.534Z,311
2023-08-31T08:59:32.982Z,316
2023-08-31T09:00:34.815Z,312
2023-08-31T09:01:33.341Z,310
2023-08-31T09:02:33.361Z,317
2023-08-31T09:03:32.907Z,314
2023-08-31T09:04:32.583Z,307
2023-08-31T09:05:32.700Z,306
2023-08-31T09:06:32.938Z,298
2023-08-31T09:07:32.551Z,305
2023-08-31T09:08:33.491Z,313
2023-08-31T09:09:32.225Z,308
2023-08-31T09:10:34.477Z,314
2023-08-31T09:11:33.003Z,310
2023-08-31T09:12:33.310Z,307
2023-08-31T09:13:32.454Z,299
2023-08-31T09:15:33.375Z,305
2023-08-31T09:16:32.746Z,309
2023-08-31T09:17:32.703Z,317
2023-08-31T09:18:32.822Z,312
2023-08-31T09:19:33.550Z,319
2023-08-31T09:20:34.244Z,318
2023-08-31T09:21:32.743Z,310
2023-08-31T09:22:33.067Z,314
2023-08-31T09:23:32.692Z,305
2023-08-31T09:24:32.621Z,312
2023-08-31T09:26:33.444Z,311
2023-08-31T09:27:33.277Z,322
2023-08-31T09:28:33.721Z,312
2023-08-31T09:29:32.488Z,306
2023-08-31T09:30:34.608Z,297
2023-08-31T09:31:34.347Z,299
2023-08-31T09:33:32.430Z,306
2023-08-31T09:34:32.825Z,313
2023-08-31T09:35:33.541Z,302
2023-08-31T09:36:34.275Z,307
2023-08-31T09:37:32.668Z,310
2023-08-31T09:38:32.964Z,305
2023-08-31T09:39:33.107Z,304
2023-08-31T09:40:35.048Z,299
2023-08-31T09:41:32.828Z,300
2023-08-31T09:42:33.053Z,308
2023-08-31T09:43:32.926Z,306
2023-08-31T09:44:33.805Z,312
2023-08-31T09:45:45.674Z,314
2023-08-31T09:46:37.069Z,316
2023-08-31T09:47:33.379Z,307
2023-08-31T09:48:33.321Z,308
2023-08-31T09:49:33.131Z,306
2023-08-31T09:50:33.846Z,311
2023-08-31T09:51:33.493Z,310
2023-08-31T09:52:32.369Z,306
2023-08-31T09:54:33.332Z,307
2023-08-31T09:55:33.038Z,317
2023-08-31T09:56:33.451Z,319
2023-08-31T09:57:45.332Z,302
2023-08-31T09:58:37.466Z,306
2023-08-31T09:59:32.797Z,308
2023-08-31T10:00:35.049Z,323
2023-08-31T10:01:32.650Z,330
2023-08-31T10:02:33.195Z,324
2023-08-31T10:03:33.173Z,314
2023-08-31T10:04:33.308Z,315
2023-08-31T10:05:33.212Z,316
2023-08-31T10:06:33.202Z,325
2023-08-31T10:07:32.749Z,332
2023-08-31T10:08:32.789Z,327
2023-08-31T10:09:33.078Z,316
2023-08-31T10:10:36.313Z,321
2023-08-31T10:12:33.358Z,307
2023-08-31T10:13:32.823Z,306
2023-08-31T10:14:33.600Z,301
2023-08-31T10:15:34.147Z,308
2023-08-31T10:16:32.826Z,294
2023-08-31T10:17:33.797Z,303
2023-08-31T10:18:32.968Z,310
2023-08-31T10:19:33.137Z,308
2023-08-31T10:20:35.175Z,302
2023-08-31T10:21:33.150Z,303
2023-08-31T10:22:33.140Z,307
2023-08-31T10:23:33.198Z,310
2023-08-31T10:24:33.464Z,303
2023-08-31T10:26:34.347Z,305
2023-08-31T10:27:33.413Z,309
2023-08-31T10:28:33.704Z,304
2023-08-31T10:29:33.280Z,307
2023-08-31T10:30:34.883Z,309
2023-08-31T10:31:32.609Z,314
2023-08-31T10:32:33.096Z,307
2023-08-31T10:33:33.687Z,300
2023-08-31T10:34:33.286Z,304
2023-08-31T10:35:35.590Z,300
2023-08-31T10:36:34.532Z,306
2023-08-31T10:37:32.909Z,298
2023-08-31T10:38:32.648Z,296
2023-08-31T10:39:32.680Z,306
2023-08-31T10:40:34.634Z,313
2023-08-31T10:41:33.149Z,314
2023-08-31T10:42:32.751Z,322
2023-08-31T10:43:45.303Z,304
2023-08-31T10:44:37.847Z,293
2023-08-31T10:45:34.082Z,299
2023-08-31T10:46:33.276Z,308
2023-08-31T10:47:32.421Z,303
2023-08-31T10:48:32.646Z,318
2023-08-31T10:49:32.081Z,314
2023-08-31T10:50:33.110Z,312
2023-08-31T10:51:33.134Z,301
2023-08-31T10:52:42.467Z,293
2023-08-31T10:53:36.396Z,281
2023-08-31T10:54:32.781Z,288
2023-08-31T10:55:34.573Z,304
2023-08-31T10:56:33.236Z,312
2023-08-31T10:57:33.825Z,307
2023-08-31T10:58:33.617Z,315
2023-08-31T10:59:32.961Z,325
2023-08-31T11:00:34.651Z,314
2023-08-31T11:01:32.981Z,304
2023-08-31T11:02:33.577Z,301
2023-08-31T11:03:32.682Z,317
2023-08-31T11:04:32.766Z,314
2023-08-31T11:05:32.611Z,301
2023-08-31T11:06:32.604Z,304
2023-08-31T11:07:32.662Z,310
2023-08-31T11:08:33.291Z,306
2023-08-31T11:09:33.491Z,314
2023-08-31T11:10:35.291Z,318
2023-08-31T11:11:33.167Z,302
2023-08-31T11:12:33.100Z,283
2023-08-31T11:13:33.029Z,285
2023-08-31T11:14:34.664Z,300
2023-08-31T11:15:32.891Z,304
2023-08-31T11:16:32.814Z,298
2023-08-31T11:17:32.706Z,293
2023-08-31T11:18:32.668Z,292
2023-08-31T11:19:32.686Z,302
2023-08-31T11:21:32.586Z,285
2023-08-31T11:22:32.953Z,286
2023-08-31T11:23:32.611Z,294
2023-08-31T11:24:32.483Z,306
2023-08-31T11:25:33.489Z,304
2023-08-31T11:26:32.668Z,299
2023-08-31T11:27:32.647Z,298
2023-08-31T11:29:33.334Z,303
2023-08-31T11:30:33.998Z,295
2023-08-31T11:31:32.553Z,300
2023-08-31T11:32:32.921Z,307
2023-08-31T11:33:33.080Z,296
2023-08-31T11:34:33.045Z,298
2023-08-31T11:35:34.995Z,294
2023-08-31T11:36:33.106Z,296
2023-08-31T11:37:32.889Z,292
2023-08-31T11:38:32.549Z,304
2023-08-31T11:39:32.070Z,309
2023-08-31T11:40:34.757Z,308
2023-08-31T11:41:32.669Z,306
2023-08-31T11:42:32.261Z,314
2023-08-31T11:43:32.915Z,318
2023-08-31T11:44:32.487Z,310
2023-08-31T11:45:33.671Z,308
2023-08-31T11:46:33.322Z,301
2023-08-31T11:47:33.604Z,304
2023-08-31T11:48:32.496Z,314
2023-08-31T11:49:32.663Z,319
2023-08-31T11:50:32.875Z,314
2023-08-31T11:51:32.907Z,303
2023-08-31T11:52:33.224Z,296
2023-08-31T11:53:33.043Z,301
2023-08-31T11:54:33.048Z,293
2023-08-31T11:56:33.116Z,305
2023-08-31T11:57:33.132Z,300
2023-08-31T11:58:33.696Z,303
2023-08-31T11:59:32.136Z,306
2023-08-31T12:00:34.980Z,322
2023-08-31T12:01:32.792Z,316
2023-08-31T12:02:32.678Z,311
2023-08-31T12:03:48.207Z,315
2023-08-31T12:04:40.103Z,314
2023-08-31T12:05:33.344Z,308
2023-08-31T12:06:33.247Z,306
2023-08-31T12:07:33.307Z,308
2023-08-31T12:08:32.878Z,301
2023-08-31T12:09:33.059Z,304
2023-08-31T12:10:35.201Z,306
2023-08-31T12:12:33.666Z,313
2023-08-31T12:13:32.437Z,315
2023-08-31T12:14:32.855Z,323
2023-08-31T12:15:32.903Z,314
2023-08-31T12:16:33.157Z,308
2023-08-31T12:17:33.007Z,296
2023-08-31T12:18:33.145Z,304
2023-08-31T12:19:32.960Z,310
2023-08-31T12:20:34.070Z,307
2023-08-31T12:21:33.454Z,310
2023-08-31T12:22:32.596Z,308
2023-08-31T12:23:33.217Z,309
2023-08-31T12:24:32.969Z,315
2023-08-31T12:25:32.919Z,318
2023-08-31T12:26:33.043Z,308
2023-08-31T12:27:33.263Z,309
2023-08-31T12:28:32.644Z,313
2023-08-31T12:29:34.964Z,316
2023-08-31T12:31:33.477Z,317
2023-08-31T12:32:33.284Z,309
2023-08-31T12:34:33.720Z,319
2023-08-31T12:35:32.889Z,321
2023-08-31T12:36:33.140Z,319
2023-08-31T12:37:33.440Z,320
2023-08-31T12:38:33.465Z,319
2023-08-31T12:39:33.099Z,314
2023-08-31T12:40:34.277Z,306
2023-08-31T12:41:33.087Z,314
2023-08-31T12:42:33.070Z,326
2023-08-31T12:43:32.808Z,323
2023-08-31T12:44:32.940Z,312
2023-08-31T12:45:32.982Z,321
2023-08-31T12:46:33.146Z,319
2023-08-31T12:47:33.456Z,299
2023-08-31T12:48:32.323Z,303
2023-08-31T12:49:32.497Z,311
2023-08-31T12:50:32.996Z,314
2023-08-31T12:51:32.131Z,313
2023-08-31T12:52:32.725Z,298
2023-08-31T12:53:33.087Z,295
2023-08-31T12:54:32.841Z,318
2023-08-31T12:55:33.200Z,319
2023-08-31T12:56:33.740Z,317
2023-08-31T12:57:32.406Z,312
2023-08-31T12:58:34.072Z,313
2023-08-31T12:59:32.866Z,325
2023-08-31T13:00:34.080Z,319
2023-08-31T13:01:32.938Z,310
2023-08-31T13:02:32.883Z,311
2023-08-31T13:03:32.800Z,315
2023-08-31T13:04:32.660Z,308
2023-08-31T13:05:33.098Z,306
2023-08-31T13:06:33.448Z,315
2023-08-31T13:08:32.632Z,324
2023-08-31T13:09:32.657Z,305
2023-08-31T13:10:36.320Z,291
2023-08-31T13:11:33.895Z,311
2023-08-31T13:12:33.493Z,319
2023-08-31T13:13:32.295Z,324
2023-08-31T13:14:33.529Z,323
2023-08-31T13:15:32.889Z,313
2023-08-31T13:16:33.255Z,309
2023-08-31T13:17:33.390Z,315
2023-08-31T13:18:33.347Z,325
2023-08-31T13:19:32.706Z,322
2023-08-31T13:20:33.229Z,308
2023-08-31T13:21:33.064Z,316
2023-08-31T13:22:33.203Z,333
2023-08-31T13:23:33.109Z,324
2023-08-31T13:24:32.408Z,321
2023-08-31T13:25:33.767Z,313
2023-08-31T13:26:32.885Z,310
2023-08-31T13:27:33.248Z,312
2023-08-31T13:28:33.690Z,305
2023-08-31T13:30:34.953Z,313
2023-08-31T13:31:34.038Z,306
2023-08-31T13:32:33.503Z,302
2023-08-31T13:33:32.825Z,305
2023-08-31T13:34:32.783Z,320
2023-08-31T13:35:32.902Z,314
2023-08-31T13:36:33.057Z,315
2023-08-31T13:38:33.240Z,307
2023-08-31T13:39:33.304Z,306
2023-08-31T13:40:35.169Z,296
2023-08-31T13:42:33.289Z,310
2023-08-31T13:43:33.305Z,315
2023-08-31T13:44:32.923Z,312
2023-08-31T13:45:33.447Z,316
2023-08-31T13:46:32.911Z,306
2023-08-31T13:47:33.051Z,307
2023-08-31T13:48:33.898Z,303
2023-08-31T13:49:32.738Z,314
2023-08-31T13:50:33.179Z,311
2023-08-31T13:51:32.389Z,305
2023-08-31T13:52:33.738Z,307
2023-08-31T13:53:32.632Z,299
2023-08-31T13:54:33.239Z,316
2023-08-31T13:55:33.184Z,300
2023-08-31T13:56:33.445Z,298
2023-08-31T13:57:33.326Z,297
2023-08-31T13:58:33.557Z,288
2023-08-31T13:59:32.925Z,301
2023-08-31T14:00:34.690Z,321
2023-08-31T14:01:33.132Z,309
2023-08-31T14:02:33.219Z,312
2023-08-31T14:03:33.376Z,318
2023-08-31T14:04:33.614Z,311
2023-08-31T14:05:33.016Z,303
2023-08-31T14:06:33.514Z,297
2023-08-31T14:07:33.561Z,306
2023-08-31T14:08:32.657Z,309
2023-08-31T14:09:32.514Z,310
2023-08-31T14:10:35.397Z,303
2023-08-31T14:11:33.500Z,308
2023-08-31T14:12:32.791Z,305
2023-08-31T14:13:32.447Z,299
2023-08-31T14:14:33.416Z,303
2023-08-31T14:15:33.082Z,311
2023-08-31T14:16:33.323Z,316
2023-08-31T14:17:33.612Z,310
2023-08-31T14:18:35.882Z,309
2023-08-31T14:19:34.063Z,296
2023-08-31T14:20:36.204Z,300
2023-08-31T14:21:34.120Z,313
2023-08-31T14:22:33.923Z,314
2023-08-31T14:23:33.187Z,299
2023-08-31T14:24:33.118Z,301
2023-08-31T14:25:33.556Z,300
2023-08-31T14:26:33.616Z,299
2023-08-31T14:27:33.281Z,295
2023-08-31T14:28:33.546Z,294
2023-08-31T14:30:33.773Z,305
2023-08-31T14:31:33.261Z,302
2023-08-31T14:32:33.510Z,306
2023-08-31T14:33:32.124Z,312
2023-08-31T14:34:33.321Z,305
2023-08-31T14:35:33.329Z,302
2023-08-31T14:36:32.764Z,304
2023-08-31T14:37:33.010Z,301
2023-08-31T14:38:33.093Z,307